Time;durP1;ratioP1;P1;durP2;ratioP2;P2;SDS_P1;SDS_P2;PMS_P1;PMS_P2;Temp;Humidity;BMP_temperature;BMP_pressure;BME280_temperature;BME280_humidity;BME280_pressure;Samples;Min_cycle;Max_cycle;Signal;HPM_P1;HPM_P2
2023/11/14 00:01:44;;;;;;;8.90;2.23;;;10.20;99.90;;;;;;5068942;28;20267;-76
2023/11/14 00:04:09;;;;;;;5.97;2.17;;;10.10;99.90;;;;;;5063857;28;20240;-75
2023/11/14 00:06:35;;;;;;;6.60;2.00;;;10.10;99.90;;;;;;5066214;28;20226;-75
2023/11/14 00:09:00;;;;;;;2.73;1.20;;;10.10;99.90;;;;;;5053892;28;20218;-74
2023/11/14 00:11:28;;;;;;;7.13;1.67;;;10.10;99.90;;;;;;5079417;28;20239;-76
2023/11/14 00:13:54;;;;;;;9.40;2.67;;;10.10;99.90;;;;;;5066693;28;20701;-76
2023/11/14 00:16:20;;;;;;;10.27;2.70;;;10.10;99.90;;;;;;5034214;28;20461;-75
2023/11/14 00:18:46;;;;;;;3.50;2.30;;;10.10;99.90;;;;;;5019825;28;20225;-75
2023/11/14 00:21:12;;;;;;;20.97;2.67;;;10.10;99.90;;;;;;5039064;28;20295;-76
2023/11/14 00:23:37;;;;;;;2.50;2.00;;;10.10;99.90;;;;;;5030918;28;20252;-76
2023/11/14 00:26:03;;;;;;;3.37;1.83;;;10.10;99.90;;;;;;5051650;28;20439;-76
2023/11/14 00:28:29;;;;;;;4.80;2.40;;;10.10;99.90;;;;;;5032821;28;20238;-75
2023/11/14 00:30:55;;;;;;;5.90;2.10;;;10.00;99.90;;;;;;5046582;28;20315;-75
2023/11/14 00:33:22;;;;;;;6.47;1.83;;;10.00;99.90;;;;;;5024664;28;20546;-74
2023/11/14 00:35:47;;;;;;;3.07;1.70;;;10.00;99.90;;;;;;5037419;28;20213;-74
2023/11/14 00:38:13;;;;;;;6.20;1.83;;;10.00;99.90;;;;;;5019646;28;20471;-75
2023/11/14 00:40:39;;;;;;;10.57;2.07;;;10.00;99.90;;;;;;5029697;28;20212;-76
2023/11/14 00:43:05;;;;;;;4.37;2.13;;;10.00;99.90;;;;;;5043842;28;20247;-75
2023/11/14 00:45:30;;;;;;;10.90;2.13;;;10.00;99.90;;;;;;5042121;28;20213;-76
2023/11/14 00:47:56;;;;;;;1.80;1.70;;;10.00;99.90;;;;;;5038069;28;21027;-76
2023/11/14 00:50:23;;;;;;;3.57;1.63;;;10.00;99.90;;;;;;5026690;28;20216;-74
2023/11/14 00:52:49;;;;;;;2.77;1.00;;;9.90;99.90;;;;;;5025948;28;20209;-75
2023/11/14 00:55:17;;;;;;;4.63;1.63;;;9.90;99.90;;;;;;5028463;28;21043;-75
2023/11/14 00:57:43;;;;;;;8.50;2.83;;;9.90;99.90;;;;;;5056069;28;20215;-75
2023/11/14 01:00:11;;;;;;;5.87;2.30;;;9.90;99.90;;;;;;5012008;28;20467;-75
2023/11/14 01:02:36;;;;;;;11.67;2.10;;;9.80;99.90;;;;;;5011408;28;20264;-72
2023/11/14 01:05:02;;;;;;;7.50;2.40;;;9.80;99.90;;;;;;5013084;28;20512;-75
2023/11/14 01:07:28;;;;;;;7.77;1.77;;;9.80;99.90;;;;;;5067878;28;20214;-74
2023/11/14 01:09:53;;;;;;;5.70;1.87;;;9.80;99.90;;;;;;5025752;28;20293;-76
2023/11/14 01:12:20;;;;;;;7.37;2.30;;;9.80;99.90;;;;;;5042797;28;20606;-77
2023/11/14 01:14:45;;;;;;;7.13;1.60;;;9.80;99.90;;;;;;5048120;28;20745;-76
2023/11/14 01:17:11;;;;;;;8.80;2.10;;;9.80;99.90;;;;;;5044462;28;20589;-75
2023/11/14 01:19:40;;;;;;;12.00;2.43;;;9.80;99.90;;;;;;5043085;28;20228;-76
2023/11/14 01:22:07;;;;;;;5.70;2.30;;;9.70;99.90;;;;;;5050940;28;20222;-75
2023/11/14 01:24:35;;;;;;;10.03;2.13;;;9.70;99.90;;;;;;5052528;28;20525;-76
2023/11/14 01:27:02;;;;;;;5.40;3.00;;;9.70;99.90;;;;;;5060626;28;20468;-75
2023/11/14 01:29:28;;;;;;;5.30;2.00;;;9.70;99.90;;;;;;5038568;28;20462;-75
2023/11/14 01:31:54;;;;;;;10.33;2.50;;;9.70;99.90;;;;;;5054354;28;21031;-75
2023/11/14 01:34:19;;;;;;;6.97;1.90;;;9.70;99.90;;;;;;5054067;28;20224;-75
2023/11/14 01:36:45;;;;;;;6.43;2.10;;;9.60;99.90;;;;;;5053486;28;20469;-75
2023/11/14 01:39:11;;;;;;;11.03;2.60;;;9.60;99.90;;;;;;5053151;28;20318;-76
2023/11/14 01:41:37;;;;;;;7.50;2.43;;;9.60;99.90;;;;;;5054313;28;20235;-75
2023/11/14 01:44:03;;;;;;;8.00;1.77;;;9.60;99.90;;;;;;5038380;28;20468;-75
2023/11/14 01:46:30;;;;;;;5.43;1.50;;;9.60;99.90;;;;;;5056983;28;20211;-75
2023/11/14 01:48:57;;;;;;;9.53;2.20;;;9.60;99.90;;;;;;5052718;28;20239;-75
2023/11/14 01:51:24;;;;;;;5.27;1.93;;;9.60;99.90;;;;;;5049997;28;20463;-75
2023/11/14 01:53:51;;;;;;;5.07;1.70;;;9.60;99.90;;;;;;5033500;28;20505;-75
2023/11/14 01:56:18;;;;;;;8.70;1.83;;;9.50;99.90;;;;;;5024669;28;20451;-75
2023/11/14 01:58:45;;;;;;;7.67;2.13;;;9.60;99.90;;;;;;5022225;28;20560;-75
2023/11/14 02:01:13;;;;;;;4.33;1.30;;;9.50;99.90;;;;;;5065380;28;20867;-75
2023/11/14 02:03:39;;;;;;;5.37;2.10;;;9.50;99.90;;;;;;5019549;28;20469;-75
2023/11/14 02:06:08;;;;;;;3.87;1.33;;;9.50;99.90;;;;;;5048744;28;20905;-75
2023/11/14 02:08:34;;;;;;;11.43;2.47;;;9.50;99.90;;;;;;5028349;28;20585;-75
2023/11/14 02:11:00;;;;;;;9.10;1.53;;;9.50;99.90;;;;;;5050917;28;20455;-75
2023/11/14 02:13:27;;;;;;;7.73;2.20;;;9.50;99.90;;;;;;5021296;28;20487;-75
2023/11/14 02:15:53;;;;;;;6.13;1.93;;;9.50;99.90;;;;;;5022543;28;20448;-75
2023/11/14 02:18:20;;;;;;;14.23;2.20;;;9.40;99.90;;;;;;5040834;28;20527;-75
2023/11/14 02:20:46;;;;;;;3.30;1.23;;;9.40;99.90;;;;;;5055769;28;20254;-75
2023/11/14 02:23:16;;;;;;;8.23;1.60;;;9.40;99.90;;;;;;5035238;28;20470;-75
2023/11/14 02:25:42;;;;;;;4.60;1.90;;;9.40;99.90;;;;;;5041273;28;20450;-75
2023/11/14 02:28:08;;;;;;;10.90;2.27;;;9.40;99.90;;;;;;5023149;28;20450;-74
2023/11/14 02:30:35;;;;;;;4.20;1.70;;;9.40;99.90;;;;;;5032113;28;20598;-75
2023/11/14 02:33:05;;;;;;;9.77;2.23;;;9.30;99.90;;;;;;5050910;28;20470;-76
2023/11/14 02:35:30;;;;;;;3.97;1.90;;;9.40;99.90;;;;;;5048627;28;20451;-75
2023/11/14 02:37:57;;;;;;;5.30;2.03;;;9.40;99.90;;;;;;5024040;28;20447;-75
2023/11/14 02:40:26;;;;;;;9.73;2.07;;;9.40;99.90;;;;;;5044796;28;20242;-75
2023/11/14 02:42:53;;;;;;;8.27;2.37;;;9.30;99.90;;;;;;5057371;28;20826;-74
2023/11/14 02:45:19;;;;;;;7.20;1.70;;;9.30;99.90;;;;;;5030358;28;20447;-75
2023/11/14 02:47:44;;;;;;;1.93;1.73;;;9.30;99.90;;;;;;5027255;28;20450;-75
2023/11/14 02:50:39;;;;;;;7.17;1.40;;;9.30;99.90;;;;;;5030186;28;20803;-75
2023/11/14 02:53:06;;;;;;;4.93;1.80;;;9.30;99.90;;;;;;5033783;28;20290;-75
2023/11/14 02:55:32;;;;;;;14.40;2.20;;;9.20;99.90;;;;;;5053932;28;20507;-75
2023/11/14 02:57:57;;;;;;;2.20;1.33;;;9.20;99.90;;;;;;5058342;28;20223;-75
2023/11/14 03:00:23;;;;;;;3.50;1.50;;;9.20;99.90;;;;;;5056484;28;20223;-75
2023/11/14 03:02:49;;;;;;;5.90;1.53;;;9.20;99.90;;;;;;5080431;28;20221;-75
2023/11/14 03:05:14;;;;;;;9.97;1.97;;;9.20;99.90;;;;;;5050057;28;20224;-75
2023/11/14 03:07:40;;;;;;;9.83;2.20;;;9.20;99.90;;;;;;5052298;28;20346;-75
2023/11/14 03:10:06;;;;;;;6.53;1.63;;;9.20;99.90;;;;;;5055525;28;20227;-75
2023/11/14 03:12:32;;;;;;;9.23;2.80;;;9.10;99.90;;;;;;5035841;28;20225;-75
2023/11/14 03:14:58;;;;;;;6.60;1.53;;;9.10;99.90;;;;;;5045628;28;20470;-75
2023/11/14 03:17:24;;;;;;;7.63;2.00;;;9.10;99.90;;;;;;5029572;28;20307;-75
2023/11/14 03:19:50;;;;;;;8.20;1.50;;;9.10;99.90;;;;;;5051837;28;20284;-75
2023/11/14 03:22:16;;;;;;;14.13;2.00;;;9.10;99.90;;;;;;5048132;28;20450;-75
2023/11/14 03:24:41;;;;;;;2.40;1.70;;;9.10;99.90;;;;;;5037976;28;20685;-75
2023/11/14 03:27:09;;;;;;;9.23;1.87;;;9.20;99.90;;;;;;5060868;28;20693;-75
2023/11/14 03:29:35;;;;;;;9.37;1.87;;;9.20;99.90;;;;;;5052280;28;20319;-75
2023/11/14 03:32:02;;;;;;;5.13;2.07;;;9.20;99.90;;;;;;5029269;28;20522;-76
2023/11/14 03:34:27;;;;;;;7.17;1.87;;;9.20;99.90;;;;;;5052417;28;20216;-76
2023/11/14 03:36:54;;;;;;;8.70;1.93;;;9.30;99.90;;;;;;5068157;28;20508;-75
2023/11/14 03:39:21;;;;;;;6.60;2.20;;;9.20;99.90;;;;;;5052231;28;20814;-76
2023/11/14 03:41:47;;;;;;;6.03;1.83;;;9.30;99.90;;;;;;5028211;28;20471;-76
2023/11/14 03:44:12;;;;;;;4.30;1.43;;;9.30;99.90;;;;;;5029401;28;20494;-76
2023/11/14 03:46:39;;;;;;;4.93;1.83;;;9.30;99.90;;;;;;5044938;28;20235;-76
2023/11/14 03:49:05;;;;;;;6.20;1.87;;;9.40;99.90;;;;;;5031208;28;20216;-76
2023/11/14 03:51:31;;;;;;;5.27;1.60;;;9.40;99.90;;;;;;5010626;28;20851;-75
2023/11/14 03:53:56;;;;;;;10.90;2.23;;;9.40;99.90;;;;;;5031019;28;20501;-75
2023/11/14 03:56:22;;;;;;;8.83;2.10;;;9.40;99.90;;;;;;5028882;28;20749;-75
2023/11/14 03:58:49;;;;;;;5.27;2.03;;;9.40;99.90;;;;;;5022574;28;20216;-75
2023/11/14 04:01:16;;;;;;;7.13;1.90;;;9.50;99.90;;;;;;5040175;28;20212;-75
2023/11/14 04:03:42;;;;;;;8.60;1.67;;;9.50;99.90;;;;;;5045914;28;20459;-75
2023/11/14 04:06:12;;;;;;;7.40;1.70;;;9.50;99.90;;;;;;5035666;28;20451;-75
2023/11/14 04:08:38;;;;;;;6.07;1.57;;;9.50;99.90;;;;;;5029172;28;20451;-76
2023/11/14 04:11:06;;;;;;;6.30;1.80;;;9.50;99.90;;;;;;5059884;28;20451;-75
2023/11/14 04:13:32;;;;;;;3.97;1.60;;;9.50;99.90;;;;;;5050801;28;20455;-75
2023/11/14 04:15:58;;;;;;;6.80;1.67;;;9.50;99.90;;;;;;5046429;28;20443;-73
2023/11/14 04:18:23;;;;;;;11.93;2.53;;;9.50;99.90;;;;;;5065026;28;20512;-75
2023/11/14 04:20:49;;;;;;;3.27;1.97;;;9.50;99.90;;;;;;5027840;28;20213;-76
2023/11/14 04:23:15;;;;;;;16.33;2.43;;;9.50;99.90;;;;;;5032998;28;20212;-75
2023/11/14 04:25:40;;;;;;;5.23;1.80;;;9.50;99.90;;;;;;5033820;28;20690;-75
2023/11/14 04:28:06;;;;;;;13.40;2.53;;;9.50;99.90;;;;;;5049583;28;20226;-75
2023/11/14 04:30:31;;;;;;;6.40;2.50;;;9.50;99.90;;;;;;5035687;28;20224;-76
2023/11/14 04:32:57;;;;;;;7.97;2.07;;;9.50;99.90;;;;;;5039799;28;20769;-75
2023/11/14 04:35:23;;;;;;;5.17;2.07;;;9.50;99.90;;;;;;5075976;28;20212;-75
2023/11/14 04:37:49;;;;;;;9.97;2.67;;;9.50;99.90;;;;;;5069294;28;20205;-75
2023/11/14 04:40:15;;;;;;;19.67;3.37;;;9.50;99.90;;;;;;5065992;28;20232;-75
2023/11/14 04:42:40;;;;;;;6.57;2.10;;;9.50;99.90;;;;;;5046288;28;20450;-75
2023/11/14 04:45:07;;;;;;;11.77;2.40;;;9.50;99.90;;;;;;5053862;28;20603;-75
2023/11/14 04:47:33;;;;;;;5.27;1.80;;;9.50;99.90;;;;;;5068389;28;20334;-76
2023/11/14 04:49:58;;;;;;;4.63;2.43;;;9.50;99.90;;;;;;5066427;28;20522;-75
2023/11/14 04:52:24;;;;;;;7.10;2.30;;;9.50;99.90;;;;;;5042756;28;20783;-75
2023/11/14 04:54:50;;;;;;;8.37;1.87;;;9.50;99.90;;;;;;5033639;28;20252;-76
2023/11/14 04:57:16;;;;;;;6.33;2.20;;;9.50;99.90;;;;;;5033555;28;20272;-75
2023/11/14 04:59:41;;;;;;;7.00;2.27;;;9.50;99.90;;;;;;5071713;28;20223;-75
2023/11/14 05:02:07;;;;;;;5.33;2.37;;;9.50;99.90;;;;;;5048677;28;20215;-75
2023/11/14 05:04:34;;;;;;;3.63;1.60;;;9.50;99.90;;;;;;5045199;28;20208;-75
2023/11/14 05:07:00;;;;;;;6.13;2.07;;;9.60;99.90;;;;;;5073678;28;20216;-73
2023/11/14 05:09:25;;;;;;;13.27;2.97;;;9.60;99.90;;;;;;5052695;28;20461;-75
2023/11/14 05:11:51;;;;;;;6.40;2.13;;;9.60;99.90;;;;;;5051950;28;20242;-75
2023/11/14 05:14:17;;;;;;;8.17;2.47;;;9.60;99.90;;;;;;5045889;28;20231;-75
2023/11/14 05:16:43;;;;;;;4.63;1.90;;;9.60;99.90;;;;;;5074942;28;20208;-74
2023/11/14 05:19:09;;;;;;;4.47;2.20;;;9.60;99.90;;;;;;5051404;28;20272;-75
2023/11/14 05:21:37;;;;;;;4.53;1.43;;;9.60;99.90;;;;;;5050951;28;20454;-75
2023/11/14 05:24:03;;;;;;;3.60;2.20;;;9.60;99.90;;;;;;5052907;28;20450;-74
2023/11/14 05:26:28;;;;;;;7.97;2.37;;;9.60;99.90;;;;;;5068049;28;20453;-75
2023/11/14 05:28:54;;;;;;;9.27;3.07;;;9.70;99.90;;;;;;5069624;28;20254;-75
2023/11/14 05:31:20;;;;;;;9.83;2.00;;;9.70;99.90;;;;;;5033851;28;20216;-75
2023/11/14 05:33:46;;;;;;;16.40;2.57;;;9.70;99.90;;;;;;5044753;28;20270;-75
2023/11/14 05:36:12;;;;;;;7.20;2.23;;;9.70;99.90;;;;;;5050565;28;20219;-74
2023/11/14 05:38:38;;;;;;;8.93;2.90;;;9.70;99.90;;;;;;5048543;28;20693;-75
2023/11/14 05:41:04;;;;;;;8.40;3.37;;;9.70;99.90;;;;;;5072514;28;20449;-74
2023/11/14 05:43:30;;;;;;;7.87;3.07;;;9.70;99.90;;;;;;5050603;28;20295;-75
2023/11/14 05:45:56;;;;;;;7.63;2.60;;;9.70;99.90;;;;;;5048423;28;20446;-74
2023/11/14 05:48:23;;;;;;;6.20;2.60;;;9.80;99.90;;;;;;5050148;28;20595;-75
2023/11/14 05:50:49;;;;;;;7.30;2.90;;;9.80;99.90;;;;;;5054431;28;20465;-74
2023/11/14 05:53:17;;;;;;;6.23;1.93;;;9.80;99.90;;;;;;5050044;28;20461;-75
2023/11/14 05:55:43;;;;;;;8.93;2.90;;;9.80;99.90;;;;;;5049112;28;20230;-75
2023/11/14 05:58:09;;;;;;;6.50;2.13;;;9.90;99.90;;;;;;5029973;28;20983;-75
2023/11/14 06:00:35;;;;;;;4.40;1.83;;;9.90;99.90;;;;;;5052773;28;20259;-75
2023/11/14 06:03:01;;;;;;;5.10;2.60;;;9.90;99.90;;;;;;5040853;28;20450;-75
2023/11/14 06:05:27;;;;;;;3.90;2.80;;;10.00;99.90;;;;;;5064211;28;20220;-75
2023/11/14 06:07:52;;;;;;;5.60;2.00;;;10.00;99.90;;;;;;5051667;28;20216;-75
2023/11/14 06:10:18;;;;;;;10.33;2.80;;;10.00;99.90;;;;;;5072530;28;20212;-75
2023/11/14 06:12:44;;;;;;;2.70;1.77;;;10.00;99.90;;;;;;5046294;28;20212;-74
2023/11/14 06:15:10;;;;;;;5.93;2.27;;;10.10;99.90;;;;;;5069714;28;20262;-75
2023/11/14 06:17:36;;;;;;;6.17;1.83;;;10.10;99.90;;;;;;5052095;28;20216;-75
2023/11/14 06:20:07;;;;;;;7.53;2.30;;;10.10;99.90;;;;;;5047062;28;20450;-75
2023/11/14 06:22:33;;;;;;;5.40;1.97;;;10.20;99.90;;;;;;5065664;28;20302;-75
2023/11/14 06:25:00;;;;;;;6.57;2.17;;;10.20;99.90;;;;;;5051189;28;20629;-73
2023/11/14 06:27:26;;;;;;;10.67;2.77;;;10.20;99.90;;;;;;5069317;28;20560;-74
2023/11/14 06:29:51;;;;;;;9.63;2.10;;;10.20;99.90;;;;;;5028142;28;20530;-75
2023/11/14 06:32:17;;;;;;;6.17;2.50;;;10.30;99.90;;;;;;5032667;28;20243;-76
2023/11/14 06:34:42;;;;;;;11.30;1.97;;;10.30;99.90;;;;;;5039759;28;20220;-76
2023/11/14 06:37:08;;;;;;;3.90;2.13;;;10.30;99.90;;;;;;5063015;28;20240;-75
2023/11/14 06:39:34;;;;;;;7.47;2.23;;;10.30;99.90;;;;;;5026776;28;20224;-75
2023/11/14 06:42:00;;;;;;;4.80;1.80;;;10.30;99.90;;;;;;5030973;28;20220;-75
2023/11/14 06:44:25;;;;;;;5.93;2.20;;;10.30;99.90;;;;;;5033577;28;20861;-76
2023/11/14 06:46:51;;;;;;;3.30;1.90;;;10.40;99.90;;;;;;5067659;28;20229;-76
2023/11/14 06:49:17;;;;;;;8.73;2.63;;;10.40;99.90;;;;;;5036711;28;20216;-75
2023/11/14 06:51:42;;;;;;;9.10;2.17;;;10.40;99.90;;;;;;5031444;28;20212;-75
2023/11/14 06:54:08;;;;;;;4.73;2.13;;;10.40;99.90;;;;;;5031057;28;20231;-75
2023/11/14 06:56:34;;;;;;;7.23;1.90;;;10.40;99.90;;;;;;5050082;28;20213;-76
2023/11/14 06:59:00;;;;;;;6.30;1.70;;;10.40;99.90;;;;;;5033105;28;20258;-75
2023/11/14 07:01:26;;;;;;;5.13;2.40;;;10.40;99.90;;;;;;5050174;28;20455;-75
2023/11/14 07:03:51;;;;;;;6.00;2.20;;;10.40;99.90;;;;;;5046885;28;20465;-75
2023/11/14 07:06:19;;;;;;;6.43;2.03;;;10.40;99.90;;;;;;5043664;28;20691;-75
2023/11/14 07:08:45;;;;;;;11.73;2.07;;;10.40;99.90;;;;;;5053205;28;20207;-75
2023/11/14 07:11:11;;;;;;;2.07;1.50;;;10.40;99.90;;;;;;5054323;28;20454;-75
2023/11/14 07:13:38;;;;;;;2.37;1.80;;;10.40;99.90;;;;;;5045935;28;20221;-74
2023/11/14 07:16:04;;;;;;;5.77;2.03;;;10.40;99.90;;;;;;5050280;28;20505;-75
2023/11/14 07:18:30;;;;;;;10.47;2.30;;;10.40;99.90;;;;;;5048591;28;20479;-76
2023/11/14 07:20:55;;;;;;;10.03;2.67;;;10.40;99.90;;;;;;5049020;28;20537;-75
2023/11/14 07:23:21;;;;;;;4.00;2.13;;;10.40;99.90;;;;;;5032232;28;20232;-76
2023/11/14 07:25:47;;;;;;;4.83;2.27;;;10.40;99.90;;;;;;5030445;28;20250;-75
2023/11/14 07:28:13;;;;;;;5.87;2.00;;;10.50;99.90;;;;;;5033121;28;20478;-76
2023/11/14 07:30:39;;;;;;;5.73;2.40;;;10.50;99.90;;;;;;5030875;28;20721;-76
2023/11/14 07:33:04;;;;;;;11.90;2.27;;;10.50;99.90;;;;;;5028156;28;20319;-75
2023/11/14 07:35:30;;;;;;;3.63;1.87;;;10.60;99.90;;;;;;5050484;28;20211;-75
2023/11/14 07:37:59;;;;;;;6.50;1.77;;;10.60;99.90;;;;;;5029908;28;20227;-76
2023/11/14 07:40:24;;;;;;;6.80;3.10;;;10.60;99.90;;;;;;5048725;28;20219;-76
2023/11/14 07:42:50;;;;;;;3.07;1.90;;;10.60;99.90;;;;;;5049927;28;20876;-76
2023/11/14 07:45:20;;;;;;;2.50;1.60;;;10.60;99.90;;;;;;5065432;28;20319;-76
2023/11/14 07:47:45;;;;;;;6.17;2.63;;;10.60;99.90;;;;;;5062238;28;20451;-76
2023/11/14 07:50:11;;;;;;;11.30;3.07;;;10.70;99.90;;;;;;5064405;28;20455;-75
2023/11/14 07:52:37;;;;;;;5.13;2.30;;;10.70;99.90;;;;;;5040395;28;20739;-75
2023/11/14 07:55:03;;;;;;;11.57;2.50;;;10.70;99.90;;;;;;5049593;28;20294;-75
2023/11/14 07:57:32;;;;;;;7.23;1.83;;;10.70;99.90;;;;;;5030188;28;20254;-76
2023/11/14 08:00:00;;;;;;;5.40;1.60;;;10.70;99.90;;;;;;5044993;28;20520;-75
2023/11/14 08:02:26;;;;;;;6.10;2.50;;;10.70;99.90;;;;;;5032229;28;20459;-75
2023/11/14 08:04:53;;;;;;;3.77;1.93;;;10.70;99.90;;;;;;5030641;28;20463;-76
2023/11/14 08:07:19;;;;;;;3.20;2.10;;;10.70;99.90;;;;;;5035776;28;20227;-75
2023/11/14 08:09:45;;;;;;;9.80;2.27;;;10.70;99.90;;;;;;5046526;28;20464;-75
2023/11/14 08:12:11;;;;;;;10.10;2.20;;;10.70;99.90;;;;;;5049323;28;20459;-75
2023/11/14 08:14:39;;;;;;;11.30;2.60;;;10.70;99.90;;;;;;5062506;28;20452;-75
2023/11/14 08:17:04;;;;;;;9.20;2.77;;;10.70;99.90;;;;;;5038315;28;20307;-75
2023/11/14 08:19:30;;;;;;;6.13;1.80;;;10.70;99.90;;;;;;5036024;28;20557;-76
2023/11/14 08:22:03;;;;;;;11.10;2.43;;;10.80;99.90;;;;;;5050934;28;20631;-75
2023/11/14 08:24:29;;;;;;;8.57;2.07;;;10.80;99.90;;;;;;5069803;28;20223;-75
2023/11/14 08:26:54;;;;;;;3.73;2.50;;;10.70;99.90;;;;;;5068431;28;20901;-76
2023/11/14 08:29:21;;;;;;;6.17;2.57;;;10.80;99.90;;;;;;5050496;28;20486;-75
2023/11/14 08:31:46;;;;;;;3.90;1.50;;;10.80;99.90;;;;;;5039010;28;20732;-76
2023/11/14 08:34:12;;;;;;;8.23;2.80;;;10.90;99.90;;;;;;5019625;28;20446;-76
2023/11/14 08:36:38;;;;;;;4.90;2.03;;;10.90;99.90;;;;;;5017864;28;20240;-76
2023/11/14 08:39:05;;;;;;;8.37;2.40;;;10.90;99.90;;;;;;5071029;28;20266;-75
2023/11/14 08:41:30;;;;;;;4.90;2.60;;;10.90;99.90;;;;;;5042127;28;20546;-76
2023/11/14 08:43:57;;;;;;;9.47;2.20;;;10.90;99.90;;;;;;5021404;28;20228;-75
2023/11/14 08:46:23;;;;;;;7.07;2.70;;;10.90;99.90;;;;;;5050970;28;20693;-75
2023/11/14 08:48:49;;;;;;;10.33;3.03;;;11.00;99.90;;;;;;5019818;28;20450;-76
2023/11/14 08:51:17;;;;;;;8.37;2.47;;;11.00;99.90;;;;;;5050040;28;20442;-75
2023/11/14 08:53:46;;;;;;;5.23;2.90;;;11.00;99.90;;;;;;5023701;28;20460;-75
2023/11/14 08:56:11;;;;;;;4.63;2.10;;;11.00;99.90;;;;;;5036982;28;20478;-75
2023/11/14 08:58:37;;;;;;;3.53;1.70;;;11.00;99.90;;;;;;5037565;28;20553;-75
2023/11/14 09:01:04;;;;;;;9.50;2.20;;;11.00;99.90;;;;;;5031921;28;20320;-75
2023/11/14 09:03:30;;;;;;;6.47;2.00;;;11.00;99.90;;;;;;5070088;28;20212;-76
2023/11/14 09:05:56;;;;;;;7.57;1.90;;;10.90;99.90;;;;;;5032772;28;21203;-76
2023/11/14 09:08:22;;;;;;;5.57;2.37;;;11.00;99.90;;;;;;5059488;28;20574;-75
2023/11/14 09:10:47;;;;;;;2.90;2.13;;;11.00;99.90;;;;;;5027699;28;20217;-75
2023/11/14 09:13:13;;;;;;;12.50;2.90;;;11.00;99.90;;;;;;5048775;28;20224;-75
2023/11/14 09:15:40;;;;;;;3.87;2.03;;;11.10;99.90;;;;;;5057655;28;20219;-76
2023/11/14 09:18:06;;;;;;;7.80;2.10;;;11.10;99.90;;;;;;5033987;28;20212;-75
2023/11/14 09:20:31;;;;;;;6.13;2.30;;;11.10;99.90;;;;;;5046667;28;20462;-75
2023/11/14 09:22:57;;;;;;;3.53;1.97;;;11.10;99.90;;;;;;5047626;28;20453;-75
2023/11/14 09:25:23;;;;;;;6.27;2.20;;;11.00;99.90;;;;;;5057005;28;20226;-75
2023/11/14 09:27:48;;;;;;;4.00;2.70;;;11.10;99.90;;;;;;5033981;28;20274;-75
2023/11/14 09:30:14;;;;;;;7.27;2.97;;;11.10;99.90;;;;;;5033955;28;20294;-75
2023/11/14 09:32:41;;;;;;;5.23;2.43;;;11.10;99.90;;;;;;5064082;28;20697;-75
2023/11/14 09:35:07;;;;;;;4.70;1.90;;;11.10;99.90;;;;;;5032709;28;20516;-75
2023/11/14 09:37:33;;;;;;;3.30;2.30;;;11.10;99.90;;;;;;5050050;28;20533;-75
2023/11/14 09:39:59;;;;;;;9.70;2.70;;;11.10;99.90;;;;;;5057867;28;20480;-75
2023/11/14 09:42:25;;;;;;;10.83;2.60;;;11.10;99.90;;;;;;5050158;28;20959;-75
2023/11/14 09:44:51;;;;;;;3.00;1.90;;;11.20;99.90;;;;;;5073229;28;20681;-75
2023/11/14 09:47:17;;;;;;;6.97;2.60;;;11.20;99.90;;;;;;5064571;28;20519;-75
2023/11/14 09:49:43;;;;;;;10.73;2.50;;;11.10;99.90;;;;;;5071435;28;20454;-75
2023/11/14 09:52:12;;;;;;;8.53;2.27;;;11.10;99.90;;;;;;5053597;28;20255;-76
2023/11/14 09:54:39;;;;;;;5.00;2.37;;;11.10;99.90;;;;;;5053857;28;20465;-75
2023/11/14 09:57:08;;;;;;;11.60;2.90;;;11.20;99.90;;;;;;5045947;28;20442;-76
2023/11/14 09:59:34;;;;;;;6.47;1.80;;;11.10;99.90;;;;;;5049163;28;20832;-75
2023/11/14 10:02:00;;;;;;;8.30;3.07;;;11.20;99.90;;;;;;5038636;28;20454;-75
2023/11/14 10:04:26;;;;;;;9.93;2.10;;;11.20;99.90;;;;;;5071951;28;20592;-76
2023/11/14 10:06:56;;;;;;;10.20;2.47;;;11.20;99.90;;;;;;5055856;28;20537;-76
2023/11/14 10:09:23;;;;;;;4.30;2.70;;;11.20;99.90;;;;;;5070310;28;20227;-75
2023/11/14 10:11:49;;;;;;;6.83;2.37;;;11.20;99.90;;;;;;5026482;28;20455;-75
2023/11/14 10:14:15;;;;;;;13.73;1.80;;;11.20;99.90;;;;;;5021729;28;20446;-75
2023/11/14 10:16:41;;;;;;;3.30;2.20;;;11.20;99.90;;;;;;5055434;28;20299;-75
2023/11/14 10:19:12;;;;;;;11.23;2.60;;;11.20;99.90;;;;;;5033537;28;20711;-75
2023/11/14 10:21:38;;;;;;;5.83;2.43;;;11.20;99.90;;;;;;5037109;28;20463;-75
2023/11/14 10:24:15;;;;;;;4.63;2.40;;;11.20;99.90;;;;;;5034443;28;20818;-75
2023/11/14 10:26:52;;;;;;;5.70;2.87;;;11.20;99.90;;;;;;5057809;28;20581;-76
2023/11/14 10:29:20;;;;;;;3.37;2.20;;;11.30;99.90;;;;;;5038394;28;20473;-75
2023/11/14 10:31:47;;;;;;;7.60;2.67;;;11.20;99.90;;;;;;5014285;28;20465;-75
2023/11/14 10:34:33;;;;;;;9.83;2.73;;;11.20;99.90;;;;;;5043772;28;20462;-75
2023/11/14 10:37:02;;;;;;;2.70;2.47;;;11.30;99.90;;;;;;5036140;28;20505;-75
2023/11/14 10:39:29;;;;;;;5.30;2.50;;;11.30;99.90;;;;;;5028541;28;20536;-76
2023/11/14 10:41:56;;;;;;;8.50;2.63;;;11.30;99.90;;;;;;5062905;28;20452;-75
2023/11/14 10:44:23;;;;;;;6.40;2.27;;;11.30;99.90;;;;;;5016277;28;20814;-75
2023/11/14 10:46:53;;;;;;;9.37;3.00;;;11.40;99.90;;;;;;5038745;28;20469;-76
2023/11/14 10:49:20;;;;;;;8.73;3.23;;;11.30;99.90;;;;;;5019844;28;20595;-76
2023/11/14 10:51:50;;;;;;;7.20;2.20;;;11.40;99.90;;;;;;5004777;28;20460;-75
2023/11/14 10:54:17;;;;;;;6.57;2.83;;;11.40;99.90;;;;;;5046057;28;20443;-76
2023/11/14 10:56:44;;;;;;;15.80;3.20;;;11.40;99.90;;;;;;5026114;28;20455;-76
2023/11/14 10:59:13;;;;;;;5.27;2.50;;;11.40;99.90;;;;;;5050263;28;20470;-75
2023/11/14 11:01:41;;;;;;;11.83;2.93;;;11.40;99.90;;;;;;5035252;28;20471;-76
2023/11/14 11:04:09;;;;;;;8.07;3.40;;;11.50;99.90;;;;;;5041484;28;20474;-77
2023/11/14 11:06:36;;;;;;;5.97;2.77;;;11.40;99.90;;;;;;5052551;28;20529;-76
2023/11/14 11:09:05;;;;;;;7.43;2.63;;;11.50;99.90;;;;;;5047103;28;20454;-76
2023/11/14 11:11:34;;;;;;;9.43;2.50;;;11.50;99.90;;;;;;5067558;28;20501;-76
2023/11/14 11:14:03;;;;;;;14.10;3.73;;;11.50;99.90;;;;;;5049139;28;20557;-75
2023/11/14 11:16:45;;;;;;;8.30;3.40;;;11.50;99.90;;;;;;5045493;28;20439;-76
2023/11/14 11:19:25;;;;;;;5.20;2.30;;;11.60;99.90;;;;;;5034501;28;20568;-76
2023/11/14 11:21:57;;;;;;;5.50;2.50;;;11.60;99.90;;;;;;5022231;28;20528;-76
2023/11/14 11:24:25;;;;;;;7.57;2.97;;;11.60;99.90;;;;;;5032908;28;20459;-76
2023/11/14 11:27:25;;;;;;;3.90;2.30;;;11.60;99.90;;;;;;5017927;28;21004;-76
2023/11/14 11:29:54;;;;;;;9.80;2.33;;;11.60;99.90;;;;;;5069639;28;20485;-76
2023/11/14 11:32:26;;;;;;;4.43;3.20;;;11.70;99.90;;;;;;5067918;28;20446;-76
2023/11/14 11:35:20;;;;;;;6.73;3.40;;;11.70;99.90;;;;;;5072678;28;20952;-76
2023/11/14 11:37:48;;;;;;;6.20;2.77;;;11.70;99.90;;;;;;5048270;28;20485;-76
2023/11/14 11:40:15;;;;;;;6.40;3.23;;;11.70;99.90;;;;;;5051009;28;20537;-75
2023/11/14 11:42:43;;;;;;;5.67;3.10;;;11.70;99.90;;;;;;5069121;28;20839;-76
2023/11/14 11:45:30;;;;;;;2.93;2.07;;;11.80;99.90;;;;;;5045963;28;20454;-76
2023/11/14 11:47:59;;;;;;;7.97;3.33;;;11.80;99.90;;;;;;5034524;28;20461;-76
2023/11/14 11:50:44;;;;;;;5.83;3.73;;;11.80;99.90;;;;;;5075182;28;20455;-76
2023/11/14 11:53:11;;;;;;;5.17;2.40;;;11.80;99.90;;;;;;5050229;28;20449;-75
2023/11/14 11:55:37;;;;;;;3.07;2.30;;;11.80;99.90;;;;;;5057390;28;20530;-75
2023/11/14 11:58:06;;;;;;;6.80;4.40;;;11.80;99.90;;;;;;5041442;28;20522;-76
2023/11/14 12:00:35;;;;;;;4.30;2.60;;;11.90;99.90;;;;;;5044707;28;20232;-76
2023/11/14 12:03:03;;;;;;;6.47;2.70;;;11.80;99.90;;;;;;5045399;28;20835;-75
2023/11/14 12:05:30;;;;;;;6.90;2.40;;;11.90;99.90;;;;;;5052440;28;20453;-76
2023/11/14 12:07:59;;;;;;;9.10;2.70;;;11.90;99.90;;;;;;5050518;28;20500;-76
2023/11/14 12:10:26;;;;;;;3.00;2.20;;;11.90;99.90;;;;;;5034254;28;20516;-76
2023/11/14 12:12:59;;;;;;;6.60;2.03;;;11.90;99.90;;;;;;5030462;28;20447;-76
2023/11/14 12:15:25;;;;;;;8.33;3.50;;;11.90;99.90;;;;;;5043314;28;20994;-76
2023/11/14 12:17:55;;;;;;;5.33;2.13;;;11.90;99.90;;;;;;5029536;28;20455;-75
2023/11/14 12:20:22;;;;;;;4.60;2.80;;;11.90;99.90;;;;;;5048547;28;20470;-76
2023/11/14 12:22:52;;;;;;;5.00;4.50;;;11.90;99.90;;;;;;5074440;28;20459;-76
2023/11/14 12:25:18;;;;;;;9.07;3.23;;;12.00;99.90;;;;;;5063955;28;20450;-76
2023/11/14 12:27:56;;;;;;;2.93;1.83;;;12.00;99.90;;;;;;5056112;28;20454;-76
2023/11/14 12:30:23;;;;;;;6.80;2.30;;;12.00;99.90;;;;;;5058863;28;20494;-76
2023/11/14 12:33:08;;;;;;;8.07;2.07;;;12.00;99.90;;;;;;5076331;28;20449;-76
2023/11/14 12:35:57;;;;;;;8.60;2.30;;;12.00;99.90;;;;;;5056024;28;20452;-76
2023/11/14 12:38:37;;;;;;;6.17;2.00;;;12.10;99.90;;;;;;5052806;28;20457;-76
2023/11/14 12:41:24;;;;;;;4.20;2.43;;;12.10;99.90;;;;;;5046683;28;20450;-76
2023/11/14 12:43:52;;;;;;;3.50;2.50;;;12.10;99.90;;;;;;5067850;28;20812;-76
2023/11/14 12:46:24;;;;;;;4.33;1.70;;;12.10;99.90;;;;;;5051343;28;20964;-76
2023/11/14 12:49:11;;;;;;;6.37;2.40;;;12.10;99.90;;;;;;5050001;28;20450;-76
2023/11/14 12:51:47;;;;;;;5.60;2.83;;;12.10;99.90;;;;;;5024790;28;20452;-76